Bitte eine E-Mail-Adresse für das Benutzerkonto eingeben. Ein Bestätigungscode wird dann an diese verschickt. Sobald der Code vorliegt, kann ein neues Passwort für das Benutzerkonto festgelegt werden.

WebCam

  
Kamera Halle
Kamera Vorfeld

GPS Triangle WM Sports Class

AeroClub Göppingen-Salach e.V.
Ausrichter der Modellflug
GPS Triangle-WM 2020

Wetter EDDS

METAR

EDDS 191320Z 28018KT 9999 -SHRA FEW008 SCT020CB 03/01 Q1022 RESHRA NOSIG =
EDDS 191100Z 1912/2012 25015G30KT 9999 SCT020 PROB30 TEMPO 1912/1914 4000 SHRAGS BKN020CB BECMG 1915/1918 22006KT


TAF

EDDS 191100Z 1912/2012 25015G30KT 9999 SCT020 PROB30 TEMPO 1912/1914 4000 SHRAGS BKN020CB BECMG 1915/1918 22006KT =


SR/SS

06:22 / 16:47 UTC
(EDSO 19-02-2020)